sensor_id;sensor_type;location;lat;lon;timestamp;pressure;altitude;pressure_sealevel;temperature
69545;BMP180;56766;52.260;20.746;2024-02-16T00:01:21;100981.80;;;7.16
69545;BMP180;56766;52.260;20.746;2024-02-16T00:03:47;100983.60;;;7.14
69545;BMP180;56766;52.260;20.746;2024-02-16T00:06:13;100979.20;;;7.10
69545;BMP180;56766;52.260;20.746;2024-02-16T00:08:39;100981.40;;;7.10
69545;BMP180;56766;52.260;20.746;2024-02-16T00:11:05;100980.20;;;7.10
69545;BMP180;56766;52.260;20.746;2024-02-16T00:13:31;100979.20;;;7.10
69545;BMP180;56766;52.260;20.746;2024-02-16T00:15:58;100978.80;;;7.06
69545;BMP180;56766;52.260;20.746;2024-02-16T00:18:24;100978.20;;;7.00
69545;BMP180;56766;52.260;20.746;2024-02-16T00:20:50;100976.80;;;7.00
69545;BMP180;56766;52.260;20.746;2024-02-16T00:23:16;100975.00;;;7.00
69545;BMP180;56766;52.260;20.746;2024-02-16T00:25:44;100971.60;;;7.00
69545;BMP180;56766;52.260;20.746;2024-02-16T00:28:12;100970.20;;;6.96
69545;BMP180;56766;52.260;20.746;2024-02-16T00:30:38;100974.20;;;6.90
69545;BMP180;56766;52.260;20.746;2024-02-16T00:33:06;100970.60;;;6.90
69545;BMP180;56766;52.260;20.746;2024-02-16T00:35:33;100964.00;;;6.90
69545;BMP180;56766;52.260;20.746;2024-02-16T00:38:00;100970.40;;;6.90
69545;BMP180;56766;52.260;20.746;2024-02-16T00:40:26;100968.80;;;6.90
69545;BMP180;56766;52.260;20.746;2024-02-16T00:42:53;100969.00;;;6.80
69545;BMP180;56766;52.260;20.746;2024-02-16T00:45:19;100968.80;;;6.80
69545;BMP180;56766;52.260;20.746;2024-02-16T00:47:45;100969.00;;;6.80
69545;BMP180;56766;52.260;20.746;2024-02-16T00:50:12;100960.80;;;6.80
69545;BMP180;56766;52.260;20.746;2024-02-16T00:52:38;100965.80;;;6.72
69545;BMP180;56766;52.260;20.746;2024-02-16T00:55:05;100957.20;;;6.70
69545;BMP180;56766;52.260;20.746;2024-02-16T00:57:32;100957.80;;;6.70
69545;BMP180;56766;52.260;20.746;2024-02-16T01:00:00;100963.00;;;6.70
69545;BMP180;56766;52.260;20.746;2024-02-16T01:02:26;100957.80;;;6.68
69545;BMP180;56766;52.260;20.746;2024-02-16T01:04:53;100956.20;;;6.60
69545;BMP180;56766;52.260;20.746;2024-02-16T01:07:20;100955.40;;;6.58
69545;BMP180;56766;52.260;20.746;2024-02-16T01:09:46;100951.00;;;6.50
69545;BMP180;56766;52.260;20.746;2024-02-16T01:12:12;100947.60;;;6.48
69545;BMP180;56766;52.260;20.746;2024-02-16T01:14:39;100947.00;;;6.40
69545;BMP180;56766;52.260;20.746;2024-02-16T01:17:05;100944.20;;;6.38
69545;BMP180;56766;52.260;20.746;2024-02-16T01:19:31;100946.00;;;6.30
69545;BMP180;56766;52.260;20.746;2024-02-16T01:21:58;100945.60;;;6.20
69545;BMP180;56766;52.260;20.746;2024-02-16T01:24:24;100941.60;;;6.20
69545;BMP180;56766;52.260;20.746;2024-02-16T01:26:51;100942.60;;;6.10
69545;BMP180;56766;52.260;20.746;2024-02-16T01:29:17;100940.00;;;6.10
69545;BMP180;56766;52.260;20.746;2024-02-16T01:31:43;100936.20;;;6.00
69545;BMP180;56766;52.260;20.746;2024-02-16T01:34:09;100933.80;;;6.00
69545;BMP180;56766;52.260;20.746;2024-02-16T01:36:35;100928.60;;;5.94
69545;BMP180;56766;52.260;20.746;2024-02-16T01:39:01;100929.00;;;5.90
69545;BMP180;56766;52.260;20.746;2024-02-16T01:41:27;100923.60;;;5.90
69545;BMP180;56766;52.260;20.746;2024-02-16T01:43:53;100928.00;;;5.88
69545;BMP180;56766;52.260;20.746;2024-02-16T01:46:21;100930.80;;;5.88
69545;BMP180;56766;52.260;20.746;2024-02-16T01:48:49;100931.00;;;5.82
69545;BMP180;56766;52.260;20.746;2024-02-16T01:51:16;100936.20;;;5.80
69545;BMP180;56766;52.260;20.746;2024-02-16T01:53:43;100936.40;;;5.78
69545;BMP180;56766;52.260;20.746;2024-02-16T01:56:09;100942.00;;;5.70
69545;BMP180;56766;52.260;20.746;2024-02-16T01:58:35;100938.20;;;5.70
69545;BMP180;56766;52.260;20.746;2024-02-16T02:01:01;100939.00;;;5.70
69545;BMP180;56766;52.260;20.746;2024-02-16T02:03:28;100940.00;;;5.60
69545;BMP180;56766;52.260;20.746;2024-02-16T02:05:54;100947.00;;;5.60
69545;BMP180;56766;52.260;20.746;2024-02-16T02:08:22;100949.00;;;5.60
69545;BMP180;56766;52.260;20.746;2024-02-16T02:10:48;100948.80;;;5.52
69545;BMP180;56766;52.260;20.746;2024-02-16T02:13:15;100946.80;;;5.50
69545;BMP180;56766;52.260;20.746;2024-02-16T02:15:41;100953.80;;;5.50
69545;BMP180;56766;52.260;20.746;2024-02-16T02:18:07;100949.80;;;5.46
69545;BMP180;56766;52.260;20.746;2024-02-16T02:20:33;100949.00;;;5.42
69545;BMP180;56766;52.260;20.746;2024-02-16T02:22:59;100945.20;;;5.40
69545;BMP180;56766;52.260;20.746;2024-02-16T02:25:25;100945.20;;;5.40
69545;BMP180;56766;52.260;20.746;2024-02-16T02:27:54;100950.00;;;5.40
69545;BMP180;56766;52.260;20.746;2024-02-16T02:30:21;100950.20;;;5.40
69545;BMP180;56766;52.260;20.746;2024-02-16T02:32:49;100947.00;;;5.40
69545;BMP180;56766;52.260;20.746;2024-02-16T02:35:18;100940.00;;;5.34
69545;BMP180;56766;52.260;20.746;2024-02-16T02:37:44;100940.80;;;5.30
69545;BMP180;56766;52.260;20.746;2024-02-16T02:40:10;100942.20;;;5.30
69545;BMP180;56766;52.260;20.746;2024-02-16T02:42:36;100939.40;;;5.30
69545;BMP180;56766;52.260;20.746;2024-02-16T02:45:03;100936.40;;;5.30
69545;BMP180;56766;52.260;20.746;2024-02-16T02:47:29;100936.40;;;5.30
69545;BMP180;56766;52.260;20.746;2024-02-16T02:49:55;100939.20;;;5.24
69545;BMP180;56766;52.260;20.746;2024-02-16T02:52:21;100939.20;;;5.20
69545;BMP180;56766;52.260;20.746;2024-02-16T02:54:48;100935.80;;;5.20
69545;BMP180;56766;52.260;20.746;2024-02-16T02:57:13;100940.40;;;5.20
69545;BMP180;56766;52.260;20.746;2024-02-16T02:59:39;100937.80;;;5.10
69545;BMP180;56766;52.260;20.746;2024-02-16T03:02:05;100938.00;;;5.10
69545;BMP180;56766;52.260;20.746;2024-02-16T03:04:31;100940.40;;;5.10
69545;BMP180;56766;52.260;20.746;2024-02-16T03:06:57;100944.60;;;5.00
69545;BMP180;56766;52.260;20.746;2024-02-16T03:09:23;100943.20;;;5.00
69545;BMP180;56766;52.260;20.746;2024-02-16T03:11:49;100933.60;;;5.00
69545;BMP180;56766;52.260;20.746;2024-02-16T03:14:18;100935.00;;;4.90
69545;BMP180;56766;52.260;20.746;2024-02-16T03:16:44;100931.60;;;4.90
69545;BMP180;56766;52.260;20.746;2024-02-16T03:19:10;100938.20;;;4.90
69545;BMP180;56766;52.260;20.746;2024-02-16T03:21:36;100932.20;;;4.80
69545;BMP180;56766;52.260;20.746;2024-02-16T03:24:03;100933.20;;;4.80
69545;BMP180;56766;52.260;20.746;2024-02-16T03:26:31;100930.00;;;4.78
69545;BMP180;56766;52.260;20.746;2024-02-16T03:28:58;100931.20;;;4.70
69545;BMP180;56766;52.260;20.746;2024-02-16T03:31:25;100932.00;;;4.70
69545;BMP180;56766;52.260;20.746;2024-02-16T03:33:52;100931.80;;;4.62
69545;BMP180;56766;52.260;20.746;2024-02-16T03:36:20;100938.00;;;4.60
69545;BMP180;56766;52.260;20.746;2024-02-16T03:38:48;100934.80;;;4.54
69545;BMP180;56766;52.260;20.746;2024-02-16T03:41:22;100934.80;;;4.50
69545;BMP180;56766;52.260;20.746;2024-02-16T03:43:50;100932.80;;;4.40
69545;BMP180;56766;52.260;20.746;2024-02-16T03:46:17;100933.00;;;4.36
69545;BMP180;56766;52.260;20.746;2024-02-16T03:48:43;100933.40;;;4.30
69545;BMP180;56766;52.260;20.746;2024-02-16T03:51:10;100935.40;;;4.20
69545;BMP180;56766;52.260;20.746;2024-02-16T03:53:37;100936.00;;;4.18
69545;BMP180;56766;52.260;20.746;2024-02-16T03:56:03;100934.40;;;4.10
69545;BMP180;56766;52.260;20.746;2024-02-16T03:58:31;100940.80;;;4.02
69545;BMP180;56766;52.260;20.746;2024-02-16T04:00:57;100946.20;;;4.00
69545;BMP180;56766;52.260;20.746;2024-02-16T04:03:24;100947.60;;;4.00
69545;BMP180;56766;52.260;20.746;2024-02-16T04:05:50;100946.20;;;3.98
69545;BMP180;56766;52.260;20.746;2024-02-16T04:08:16;100936.40;;;3.90
69545;BMP180;56766;52.260;20.746;2024-02-16T04:10:42;100938.80;;;3.90
69545;BMP180;56766;52.260;20.746;2024-02-16T04:13:08;100939.60;;;3.80
69545;BMP180;56766;52.260;20.746;2024-02-16T04:15:34;100945.40;;;3.80
69545;BMP180;56766;52.260;20.746;2024-02-16T04:18:00;100941.60;;;3.80
69545;BMP180;56766;52.260;20.746;2024-02-16T04:20:25;100943.80;;;3.70
69545;BMP180;56766;52.260;20.746;2024-02-16T04:22:51;100939.80;;;3.70
69545;BMP180;56766;52.260;20.746;2024-02-16T04:25:17;100944.20;;;3.70
69545;BMP180;56766;52.260;20.746;2024-02-16T04:27:43;100942.40;;;3.60
69545;BMP180;56766;52.260;20.746;2024-02-16T04:30:10;100941.20;;;3.60
69545;BMP180;56766;52.260;20.746;2024-02-16T04:32:36;100939.80;;;3.60
69545;BMP180;56766;52.260;20.746;2024-02-16T04:35:02;100942.20;;;3.56
69545;BMP180;56766;52.260;20.746;2024-02-16T04:37:29;100938.60;;;3.50
69545;BMP180;56766;52.260;20.746;2024-02-16T04:39:55;100940.80;;;3.50
69545;BMP180;56766;52.260;20.746;2024-02-16T04:42:21;100938.60;;;3.46
69545;BMP180;56766;52.260;20.746;2024-02-16T04:44:48;100939.20;;;3.40
69545;BMP180;56766;52.260;20.746;2024-02-16T04:47:14;100944.80;;;3.40
69545;BMP180;56766;52.260;20.746;2024-02-16T04:49:40;100946.00;;;3.30
69545;BMP180;56766;52.260;20.746;2024-02-16T04:52:06;100939.40;;;3.30
69545;BMP180;56766;52.260;20.746;2024-02-16T04:54:34;100938.40;;;3.22
69545;BMP180;56766;52.260;20.746;2024-02-16T04:57:00;100930.60;;;3.20
69545;BMP180;56766;52.260;20.746;2024-02-16T04:59:26;100936.80;;;3.20
69545;BMP180;56766;52.260;20.746;2024-02-16T05:01:53;100935.80;;;3.10
69545;BMP180;56766;52.260;20.746;2024-02-16T05:04:19;100938.60;;;3.10
69545;BMP180;56766;52.260;20.746;2024-02-16T05:06:46;100934.40;;;3.10
69545;BMP180;56766;52.260;20.746;2024-02-16T05:09:12;100930.80;;;3.00
69545;BMP180;56766;52.260;20.746;2024-02-16T05:11:44;100934.80;;;3.00
69545;BMP180;56766;52.260;20.746;2024-02-16T05:14:11;100930.00;;;3.00
69545;BMP180;56766;52.260;20.746;2024-02-16T05:16:44;100936.40;;;3.00
69545;BMP180;56766;52.260;20.746;2024-02-16T05:19:10;100926.80;;;2.90
69545;BMP180;56766;52.260;20.746;2024-02-16T05:21:36;100926.00;;;2.90
69545;BMP180;56766;52.260;20.746;2024-02-16T05:24:02;100926.40;;;2.90
69545;BMP180;56766;52.260;20.746;2024-02-16T05:26:28;100931.00;;;2.90
69545;BMP180;56766;52.260;20.746;2024-02-16T05:28:55;100927.20;;;2.88
69545;BMP180;56766;52.260;20.746;2024-02-16T05:31:21;100923.20;;;2.80
69545;BMP180;56766;52.260;20.746;2024-02-16T05:33:51;100925.60;;;2.80
69545;BMP180;56766;52.260;20.746;2024-02-16T05:36:21;100924.20;;;2.80
69545;BMP180;56766;52.260;20.746;2024-02-16T05:38:51;100919.60;;;2.78
69545;BMP180;56766;52.260;20.746;2024-02-16T05:41:17;100928.40;;;2.70
69545;BMP180;56766;52.260;20.746;2024-02-16T05:43:44;100932.40;;;2.70
69545;BMP180;56766;52.260;20.746;2024-02-16T05:46:15;100933.00;;;2.70
69545;BMP180;56766;52.260;20.746;2024-02-16T05:48:45;100934.60;;;2.70
69545;BMP180;56766;52.260;20.746;2024-02-16T05:51:13;100945.40;;;2.70
69545;BMP180;56766;52.260;20.746;2024-02-16T05:53:40;100943.40;;;2.70
69545;BMP180;56766;52.260;20.746;2024-02-16T05:56:06;100945.40;;;2.70
69545;BMP180;56766;52.260;20.746;2024-02-16T05:58:32;100941.00;;;2.70
69545;BMP180;56766;52.260;20.746;2024-02-16T06:00:59;100945.20;;;2.70
69545;BMP180;56766;52.260;20.746;2024-02-16T06:03:25;100950.60;;;2.72
69545;BMP180;56766;52.260;20.746;2024-02-16T06:05:52;100949.00;;;2.78
69545;BMP180;56766;52.260;20.746;2024-02-16T06:08:19;100951.00;;;2.80
69545;BMP180;56766;52.260;20.746;2024-02-16T06:10:45;100951.20;;;2.80
69545;BMP180;56766;52.260;20.746;2024-02-16T06:13:18;100954.40;;;2.80
69545;BMP180;56766;52.260;20.746;2024-02-16T06:15:45;100959.60;;;2.90
69545;BMP180;56766;52.260;20.746;2024-02-16T06:18:11;100957.60;;;2.90
69545;BMP180;56766;52.260;20.746;2024-02-16T06:20:37;100956.60;;;2.94
69545;BMP180;56766;52.260;20.746;2024-02-16T06:23:03;100957.00;;;3.00
69545;BMP180;56766;52.260;20.746;2024-02-16T06:25:29;100957.80;;;3.00
69545;BMP180;56766;52.260;20.746;2024-02-16T06:27:56;100961.00;;;3.10
69545;BMP180;56766;52.260;20.746;2024-02-16T06:30:22;100957.80;;;3.14
69545;BMP180;56766;52.260;20.746;2024-02-16T06:32:48;100963.00;;;3.20
69545;BMP180;56766;52.260;20.746;2024-02-16T06:35:14;100966.40;;;3.30
69545;BMP180;56766;52.260;20.746;2024-02-16T06:37:40;100967.00;;;3.32
69545;BMP180;56766;52.260;20.746;2024-02-16T06:40:07;100965.00;;;3.40
69545;BMP180;56766;52.260;20.746;2024-02-16T06:42:37;100972.80;;;3.50
69545;BMP180;56766;52.260;20.746;2024-02-16T06:45:04;100971.00;;;3.60
69545;BMP180;56766;52.260;20.746;2024-02-16T06:47:32;100977.00;;;3.70
69545;BMP180;56766;52.260;20.746;2024-02-16T06:49:58;100975.80;;;3.80
69545;BMP180;56766;52.260;20.746;2024-02-16T06:52:24;100973.60;;;3.90
69545;BMP180;56766;52.260;20.746;2024-02-16T06:54:50;100975.20;;;4.00
69545;BMP180;56766;52.260;20.746;2024-02-16T06:57:17;100973.00;;;4.12
69545;BMP180;56766;52.260;20.746;2024-02-16T06:59:43;100972.80;;;4.20
69545;BMP180;56766;52.260;20.746;2024-02-16T07:02:09;100967.20;;;4.30
69545;BMP180;56766;52.260;20.746;2024-02-16T07:04:39;100973.40;;;4.40
69545;BMP180;56766;52.260;20.746;2024-02-16T07:07:05;100970.40;;;4.50
69545;BMP180;56766;52.260;20.746;2024-02-16T07:09:32;100966.80;;;4.68
69545;BMP180;56766;52.260;20.746;2024-02-16T07:11:58;100973.80;;;4.80
69545;BMP180;56766;52.260;20.746;2024-02-16T07:14:24;100970.60;;;4.94
69545;BMP180;56766;52.260;20.746;2024-02-16T07:16:50;100968.40;;;5.10
69545;BMP180;56766;52.260;20.746;2024-02-16T07:19:16;100975.60;;;5.20
69545;BMP180;56766;52.260;20.746;2024-02-16T07:21:44;100975.60;;;5.30
69545;BMP180;56766;52.260;20.746;2024-02-16T07:24:10;100973.00;;;5.40
69545;BMP180;56766;52.260;20.746;2024-02-16T07:26:36;100970.40;;;5.50
69545;BMP180;56766;52.260;20.746;2024-02-16T07:29:03;100975.00;;;5.60
69545;BMP180;56766;52.260;20.746;2024-02-16T07:31:33;100975.20;;;5.70
69545;BMP180;56766;52.260;20.746;2024-02-16T07:34:01;100975.00;;;5.80
69545;BMP180;56766;52.260;20.746;2024-02-16T07:36:28;100980.80;;;5.90
69545;BMP180;56766;52.260;20.746;2024-02-16T07:38:54;100985.80;;;6.00
69545;BMP180;56766;52.260;20.746;2024-02-16T07:41:20;100987.20;;;6.10
69545;BMP180;56766;52.260;20.746;2024-02-16T07:43:46;100987.00;;;6.20
69545;BMP180;56766;52.260;20.746;2024-02-16T07:46:12;100989.80;;;6.30
69545;BMP180;56766;52.260;20.746;2024-02-16T07:48:40;100989.20;;;6.40
69545;BMP180;56766;52.260;20.746;2024-02-16T07:51:06;100989.60;;;6.50
69545;BMP180;56766;52.260;20.746;2024-02-16T07:53:33;100991.80;;;6.70
69545;BMP180;56766;52.260;20.746;2024-02-16T07:56:00;100989.60;;;6.80
69545;BMP180;56766;52.260;20.746;2024-02-16T07:58:26;100988.20;;;6.90
69545;BMP180;56766;52.260;20.746;2024-02-16T08:00:52;100982.80;;;7.00
69545;BMP180;56766;52.260;20.746;2024-02-16T08:03:20;100976.60;;;7.10
69545;BMP180;56766;52.260;20.746;2024-02-16T08:05:46;100979.40;;;7.20
69545;BMP180;56766;52.260;20.746;2024-02-16T08:08:12;100977.00;;;7.22
69545;BMP180;56766;52.260;20.746;2024-02-16T08:10:38;100976.00;;;7.30
69545;BMP180;56766;52.260;20.746;2024-02-16T08:13:04;100972.00;;;7.30
69545;BMP180;56766;52.260;20.746;2024-02-16T08:15:30;100969.40;;;7.40
69545;BMP180;56766;52.260;20.746;2024-02-16T08:17:57;100972.00;;;7.50
69545;BMP180;56766;52.260;20.746;2024-02-16T08:20:23;100968.40;;;7.64
69545;BMP180;56766;52.260;20.746;2024-02-16T08:22:49;100969.60;;;7.80
69545;BMP180;56766;52.260;20.746;2024-02-16T08:25:15;100973.80;;;7.90
69545;BMP180;56766;52.260;20.746;2024-02-16T08:27:41;100974.20;;;8.00
69545;BMP180;56766;52.260;20.746;2024-02-16T08:30:08;100972.80;;;8.16
69545;BMP180;56766;52.260;20.746;2024-02-16T08:32:37;100967.80;;;8.30
69545;BMP180;56766;52.260;20.746;2024-02-16T08:35:03;100970.20;;;8.40
69545;BMP180;56766;52.260;20.746;2024-02-16T08:37:29;100964.60;;;8.50
69545;BMP180;56766;52.260;20.746;2024-02-16T08:39:55;100964.60;;;8.60
69545;BMP180;56766;52.260;20.746;2024-02-16T08:42:21;100964.40;;;8.70
69545;BMP180;56766;52.260;20.746;2024-02-16T08:44:48;100960.40;;;8.80
69545;BMP180;56766;52.260;20.746;2024-02-16T08:47:15;100959.00;;;8.90
69545;BMP180;56766;52.260;20.746;2024-02-16T08:49:41;100958.40;;;9.00
69545;BMP180;56766;52.260;20.746;2024-02-16T08:52:08;100954.00;;;9.10
69545;BMP180;56766;52.260;20.746;2024-02-16T08:54:34;100954.00;;;9.20
69545;BMP180;56766;52.260;20.746;2024-02-16T08:57:00;100953.40;;;9.30
69545;BMP180;56766;52.260;20.746;2024-02-16T08:59:26;100951.20;;;9.30
69545;BMP180;56766;52.260;20.746;2024-02-16T09:01:54;100950.00;;;9.42
69545;BMP180;56766;52.260;20.746;2024-02-16T09:04:20;100952.20;;;9.60
69545;BMP180;56766;52.260;20.746;2024-02-16T09:06:46;100943.00;;;9.70
69545;BMP180;56766;52.260;20.746;2024-02-16T09:09:13;100946.60;;;9.70
69545;BMP180;56766;52.260;20.746;2024-02-16T09:11:41;100943.40;;;9.70
69545;BMP180;56766;52.260;20.746;2024-02-16T09:14:07;100939.00;;;9.80
69545;BMP180;56766;52.260;20.746;2024-02-16T09:16:33;100935.40;;;9.88
69545;BMP180;56766;52.260;20.746;2024-02-16T09:18:59;100930.00;;;9.90
69545;BMP180;56766;52.260;20.746;2024-02-16T09:21:25;100929.20;;;10.00
69545;BMP180;56766;52.260;20.746;2024-02-16T09:23:54;100931.60;;;10.08
69545;BMP180;56766;52.260;20.746;2024-02-16T09:26:24;100936.80;;;10.20
69545;BMP180;56766;52.260;20.746;2024-02-16T09:28:52;100935.00;;;10.20
69545;BMP180;56766;52.260;20.746;2024-02-16T09:31:19;100928.00;;;10.20
69545;BMP180;56766;52.260;20.746;2024-02-16T09:33:45;100929.60;;;10.20
69545;BMP180;56766;52.260;20.746;2024-02-16T09:36:11;100933.00;;;10.20
69545;BMP180;56766;52.260;20.746;2024-02-16T09:38:37;100927.40;;;10.24
69545;BMP180;56766;52.260;20.746;2024-02-16T09:41:03;100931.20;;;10.30
69545;BMP180;56766;52.260;20.746;2024-02-16T09:43:30;100925.20;;;10.30
69545;BMP180;56766;52.260;20.746;2024-02-16T09:45:58;100928.00;;;10.40
69545;BMP180;56766;52.260;20.746;2024-02-16T09:48:28;100924.80;;;10.42
69545;BMP180;56766;52.260;20.746;2024-02-16T09:50:56;100932.00;;;10.50
69545;BMP180;56766;52.260;20.746;2024-02-16T09:53:26;100932.40;;;10.60
69545;BMP180;56766;52.260;20.746;2024-02-16T09:55:53;100933.20;;;10.60
69545;BMP180;56766;52.260;20.746;2024-02-16T09:58:20;100936.40;;;10.70
69545;BMP180;56766;52.260;20.746;2024-02-16T10:00:55;100939.60;;;10.80
69545;BMP180;56766;52.260;20.746;2024-02-16T10:03:29;100930.00;;;10.90
69545;BMP180;56766;52.260;20.746;2024-02-16T10:06:11;100929.80;;;10.90
69545;BMP180;56766;52.260;20.746;2024-02-16T10:08:55;100923.60;;;11.00
69545;BMP180;56766;52.260;20.746;2024-02-16T10:11:26;100929.20;;;11.10
69545;BMP180;56766;52.260;20.746;2024-02-16T10:14:04;100925.60;;;11.20
69545;BMP180;56766;52.260;20.746;2024-02-16T10:16:31;100924.60;;;11.24
69545;BMP180;56766;52.260;20.746;2024-02-16T10:19:08;100926.20;;;11.30
69545;BMP180;56766;52.260;20.746;2024-02-16T10:21:37;100916.80;;;11.40
69545;BMP180;56766;52.260;20.746;2024-02-16T10:24:10;100918.40;;;11.50
69545;BMP180;56766;52.260;20.746;2024-02-16T10:26:38;100912.00;;;11.58
69545;BMP180;56766;52.260;20.746;2024-02-16T10:29:09;100906.40;;;11.60
69545;BMP180;56766;52.260;20.746;2024-02-16T10:31:37;100900.80;;;11.60
69545;BMP180;56766;52.260;20.746;2024-02-16T10:34:05;100902.60;;;11.70
69545;BMP180;56766;52.260;20.746;2024-02-16T10:36:35;100897.40;;;11.70
69545;BMP180;56766;52.260;20.746;2024-02-16T10:39:04;100897.40;;;11.70
69545;BMP180;56766;52.260;20.746;2024-02-16T10:41:37;100893.00;;;11.70
69545;BMP180;56766;52.260;20.746;2024-02-16T10:44:05;100888.80;;;11.80
69545;BMP180;56766;52.260;20.746;2024-02-16T10:46:32;100890.80;;;11.90
69545;BMP180;56766;52.260;20.746;2024-02-16T10:49:00;100883.60;;;11.92
69545;BMP180;56766;52.260;20.746;2024-02-16T10:51:44;100885.80;;;12.00
69545;BMP180;56766;52.260;20.746;2024-02-16T10:54:18;100881.20;;;12.10
69545;BMP180;56766;52.260;20.746;2024-02-16T10:56:45;100880.80;;;12.10
69545;BMP180;56766;52.260;20.746;2024-02-16T10:59:11;100879.60;;;12.20
69545;BMP180;56766;52.260;20.746;2024-02-16T11:01:38;100874.60;;;12.30
69545;BMP180;56766;52.260;20.746;2024-02-16T11:04:08;100864.60;;;12.32
69545;BMP180;56766;52.260;20.746;2024-02-16T11:06:55;100862.40;;;12.40
69545;BMP180;56766;52.260;20.746;2024-02-16T11:11:59;100859.40;;;12.60
69545;BMP180;56766;52.260;20.746;2024-02-16T11:14:37;100855.00;;;12.60
69545;BMP180;56766;52.260;20.746;2024-02-16T11:17:22;100849.00;;;12.60
69545;BMP180;56766;52.260;20.746;2024-02-16T11:19:50;100842.80;;;12.60
69545;BMP180;56766;52.260;20.746;2024-02-16T11:22:18;100843.60;;;12.70
69545;BMP180;56766;52.260;20.746;2024-02-16T11:24:47;100840.60;;;12.80
69545;BMP180;56766;52.260;20.746;2024-02-16T11:27:16;100828.00;;;12.82
69545;BMP180;56766;52.260;20.746;2024-02-16T11:29:46;100831.80;;;12.90
69545;BMP180;56766;52.260;20.746;2024-02-16T11:32:12;100823.00;;;13.00
69545;BMP180;56766;52.260;20.746;2024-02-16T11:34:38;100821.40;;;13.00
69545;BMP180;56766;52.260;20.746;2024-02-16T11:37:05;100816.40;;;13.00
69545;BMP180;56766;52.260;20.746;2024-02-16T11:39:32;100811.00;;;13.10
69545;BMP180;56766;52.260;20.746;2024-02-16T11:42:10;100803.00;;;13.10
69545;BMP180;56766;52.260;20.746;2024-02-16T11:44:39;100807.80;;;13.10
69545;BMP180;56766;52.260;20.746;2024-02-16T11:47:08;100807.80;;;13.20
69545;BMP180;56766;52.260;20.746;2024-02-16T11:49:41;100799.80;;;13.20
69545;BMP180;56766;52.260;20.746;2024-02-16T11:52:07;100796.60;;;13.20
69545;BMP180;56766;52.260;20.746;2024-02-16T11:54:34;100799.20;;;13.20
69545;BMP180;56766;52.260;20.746;2024-02-16T11:57:02;100797.80;;;13.20
69545;BMP180;56766;52.260;20.746;2024-02-16T11:59:29;100797.20;;;13.30
69545;BMP180;56766;52.260;20.746;2024-02-16T12:01:58;100789.60;;;13.30
69545;BMP180;56766;52.260;20.746;2024-02-16T12:04:27;100788.20;;;13.30
69545;BMP180;56766;52.260;20.746;2024-02-16T12:06:58;100783.60;;;13.30
69545;BMP180;56766;52.260;20.746;2024-02-16T12:09:25;100780.40;;;13.30
69545;BMP180;56766;52.260;20.746;2024-02-16T12:11:55;100782.60;;;13.40
69545;BMP180;56766;52.260;20.746;2024-02-16T12:14:22;100785.00;;;13.40
69545;BMP180;56766;52.260;20.746;2024-02-16T12:16:51;100784.80;;;13.40
69545;BMP180;56766;52.260;20.746;2024-02-16T12:19:22;100782.20;;;13.40
69545;BMP180;56766;52.260;20.746;2024-02-16T12:21:52;100780.80;;;13.42
69545;BMP180;56766;52.260;20.746;2024-02-16T12:24:20;100773.80;;;13.50
69545;BMP180;56766;52.260;20.746;2024-02-16T12:26:46;100770.80;;;13.50
69545;BMP180;56766;52.260;20.746;2024-02-16T12:29:12;100768.60;;;13.50
69545;BMP180;56766;52.260;20.746;2024-02-16T12:31:40;100772.40;;;13.40
69545;BMP180;56766;52.260;20.746;2024-02-16T12:34:07;100775.20;;;13.40
69545;BMP180;56766;52.260;20.746;2024-02-16T12:36:39;100771.80;;;13.40
69545;BMP180;56766;52.260;20.746;2024-02-16T12:39:08;100766.40;;;13.40
69545;BMP180;56766;52.260;20.746;2024-02-16T12:41:38;100763.80;;;13.40
69545;BMP180;56766;52.260;20.746;2024-02-16T12:44:05;100762.60;;;13.40
69545;BMP180;56766;52.260;20.746;2024-02-16T12:46:34;100761.80;;;13.40
69545;BMP180;56766;52.260;20.746;2024-02-16T12:49:00;100761.20;;;13.40
69545;BMP180;56766;52.260;20.746;2024-02-16T12:51:26;100758.20;;;13.40
69545;BMP180;56766;52.260;20.746;2024-02-16T12:53:52;100758.80;;;13.50
69545;BMP180;56766;52.260;20.746;2024-02-16T12:56:18;100758.20;;;13.50
69545;BMP180;56766;52.260;20.746;2024-02-16T12:58:46;100758.20;;;13.50
69545;BMP180;56766;52.260;20.746;2024-02-16T13:01:12;100758.00;;;13.50
69545;BMP180;56766;52.260;20.746;2024-02-16T13:03:38;100752.60;;;13.50
69545;BMP180;56766;52.260;20.746;2024-02-16T13:06:07;100758.80;;;13.50
69545;BMP180;56766;52.260;20.746;2024-02-16T13:08:33;100748.40;;;13.50
69545;BMP180;56766;52.260;20.746;2024-02-16T13:10:59;100748.20;;;13.40
69545;BMP180;56766;52.260;20.746;2024-02-16T13:13:25;100751.80;;;13.40
69545;BMP180;56766;52.260;20.746;2024-02-16T13:15:51;100749.00;;;13.40
69545;BMP180;56766;52.260;20.746;2024-02-16T13:18:17;100749.00;;;13.40
69545;BMP180;56766;52.260;20.746;2024-02-16T13:20:45;100747.60;;;13.40
69545;BMP180;56766;52.260;20.746;2024-02-16T13:23:11;100749.80;;;13.40
69545;BMP180;56766;52.260;20.746;2024-02-16T13:25:37;100750.80;;;13.40
69545;BMP180;56766;52.260;20.746;2024-02-16T13:28:03;100750.80;;;13.40
69545;BMP180;56766;52.260;20.746;2024-02-16T13:30:29;100744.00;;;13.34
69545;BMP180;56766;52.260;20.746;2024-02-16T13:32:55;100743.40;;;13.30
69545;BMP180;56766;52.260;20.746;2024-02-16T13:35:21;100740.40;;;13.30
69545;BMP180;56766;52.260;20.746;2024-02-16T13:37:48;100738.00;;;13.26
69545;BMP180;56766;52.260;20.746;2024-02-16T13:40:14;100736.60;;;13.20
69545;BMP180;56766;52.260;20.746;2024-02-16T13:42:41;100737.20;;;13.20
69545;BMP180;56766;52.260;20.746;2024-02-16T13:45:09;100734.20;;;13.20
69545;BMP180;56766;52.260;20.746;2024-02-16T13:47:35;100730.80;;;13.10
69545;BMP180;56766;52.260;20.746;2024-02-16T13:50:01;100725.40;;;13.10
69545;BMP180;56766;52.260;20.746;2024-02-16T13:52:27;100728.60;;;13.10
69545;BMP180;56766;52.260;20.746;2024-02-16T13:54:54;100726.20;;;13.00